Time;durP1;ratioP1;P1;durP2;ratioP2;P2;SDS_P1;SDS_P2;PMS_P1;PMS_P2;Temp;Humidity;BMP_temperature;BMP_pressure;BME280_temperature;BME280_humidity;BME280_pressure;Samples;Min_cycle;Max_cycle;Signal;HPM_P1;HPM_P2
2021/11/13 00:01:31;;;;;;;;;24.25;21.00;;;;;;;;5002751;28;112195;-82
2021/11/13 00:03:57;;;;;;;;;27.75;24.00;;;;;;;;5001647;28;112258;-81
2021/11/13 00:06:22;;;;;;;;;26.25;23.00;;;;;;;;5002574;28;111803;-80
2021/11/13 00:08:48;;;;;;;;;23.75;21.50;;;;;;;;5002910;28;112411;-79
2021/11/13 00:11:13;;;;;;;;;26.25;24.25;;;;;;;;5005529;28;112409;-80
2021/11/13 00:13:39;;;;;;;;;25.00;20.25;;;;;;;;5002658;28;112151;-80
2021/11/13 00:16:05;;;;;;;;;22.50;21.25;;;;;;;;5001062;28;112526;-79
2021/11/13 00:18:35;;;;;;;;;24.50;16.00;;;;;;;;5001980;28;112047;-80
2021/11/13 00:21:00;;;;;;;;;22.75;20.50;;;;;;;;5001752;28;112349;-80
2021/11/13 00:23:25;;;;;;;;;24.25;21.00;;;;;;;;5000852;28;112920;-80
2021/11/13 00:25:51;;;;;;;;;24.50;23.00;;;;;;;;5001454;28;112144;-81
2021/11/13 00:28:16;;;;;;;;;28.00;24.00;;;;;;;;5001664;28;112754;-80
2021/11/13 00:30:42;;;;;;;;;26.00;23.75;;;;;;;;5000345;28;114650;-79
2021/11/13 00:33:08;;;;;;;;;24.00;21.00;;;;;;;;5004199;28;112025;-82
2021/11/13 00:35:33;;;;;;;;;27.50;23.25;;;;;;;;5000728;28;113716;-82
2021/11/13 00:37:58;;;;;;;;;27.25;24.75;;;;;;;;5001601;28;112291;-81
2021/11/13 00:40:24;;;;;;;;;27.50;21.00;;;;;;;;5001731;28;111823;-84
2021/11/13 00:42:49;;;;;;;;;28.50;19.50;;;;;;;;5000900;28;112370;-82
2021/11/13 00:45:15;;;;;;;;;26.50;24.00;;;;;;;;5001618;28;112043;-80
2021/11/13 00:47:40;;;;;;;;;28.75;24.25;;;;;;;;5001201;28;112335;-84
2021/11/13 00:50:06;;;;;;;;;31.00;25.00;;;;;;;;5000516;28;112290;-83
2021/11/13 00:52:32;;;;;;;;;25.50;22.50;;;;;;;;5000533;28;112181;-81
2021/11/13 00:54:57;;;;;;;;;28.75;23.75;;;;;;;;5004714;28;112130;-82
2021/11/13 00:57:23;;;;;;;;;29.00;21.25;;;;;;;;5001746;28;111822;-83
2021/11/13 00:59:48;;;;;;;;;29.50;24.50;;;;;;;;5001143;28;111963;-81
2021/11/13 01:02:14;;;;;;;;;26.25;22.00;;;;;;;;5000401;28;112522;-83
2021/11/13 01:04:39;;;;;;;;;25.75;23.75;;;;;;;;5001162;28;112054;-81
2021/11/13 01:07:05;;;;;;;;;24.00;23.00;;;;;;;;5001341;28;111958;-82
2021/11/13 01:09:31;;;;;;;;;26.00;25.50;;;;;;;;5000018;28;112334;-82
2021/11/13 01:11:57;;;;;;;;;33.25;23.50;;;;;;;;5000838;28;112034;-82
2021/11/13 01:14:23;;;;;;;;;23.75;21.25;;;;;;;;5001243;28;112962;-81
2021/11/13 01:16:48;;;;;;;;;38.67;34.00;;;;;;;;5004231;28;113017;-82
2021/11/13 01:19:14;;;;;;;;;41.33;35.67;;;;;;;;5001445;28;111820;-82
2021/11/13 01:21:39;;;;;;;;;50.33;41.00;;;;;;;;5000278;28;114130;-82
2021/11/13 01:24:05;;;;;;;;;49.33;43.33;;;;;;;;5001307;28;112435;-81
2021/11/13 01:26:30;;;;;;;;;46.33;37.67;;;;;;;;5001696;28;111937;-81
2021/11/13 01:28:55;;;;;;;;;15.00;9.00;;;;;;;;5000441;28;112471;-81
2021/11/13 01:31:21;;;;;;;;;44.75;38.00;;;;;;;;5001501;28;112719;-81
2021/11/13 01:33:46;;;;;;;;;44.00;38.75;;;;;;;;5001789;28;112656;-82
2021/11/13 01:36:12;;;;;;;;;46.50;41.50;;;;;;;;5003785;28;113657;-82
2021/11/13 01:38:38;;;;;;;;;44.75;39.50;;;;;;;;5000027;28;114707;-82
2021/11/13 01:41:07;;;;;;;;;38.75;32.75;;;;;;;;5000008;28;114287;-81
2021/11/13 01:43:33;;;;;;;;;45.25;40.25;;;;;;;;5001385;28;112123;-81
2021/11/13 01:46:03;;;;;;;;;35.25;34.50;;;;;;;;5001218;28;112061;-80
2021/11/13 01:48:29;;;;;;;;;33.50;30.00;;;;;;;;5000036;28;112755;-81
2021/11/13 01:50:54;;;;;;;;;41.75;32.00;;;;;;;;5000714;28;111862;-82
2021/11/13 01:53:20;;;;;;;;;40.33;37.67;;;;;;;;5000777;28;112469;-81
2021/11/13 01:55:45;;;;;;;;;44.00;37.33;;;;;;;;5000794;28;113629;-83
2021/11/13 01:58:12;;;;;;;;;43.00;37.00;;;;;;;;5011069;28;112417;-81
2021/11/13 02:00:42;;;;;;;;;39.00;36.00;;;;;;;;5006287;28;112627;-83
2021/11/13 02:03:08;;;;;;;;;44.67;35.33;;;;;;;;5001319;28;112073;-83
2021/11/13 02:05:33;;;;;;;;;42.33;39.00;;;;;;;;5001047;28;112454;-84
2021/11/13 02:07:59;;;;;;;;;48.00;39.00;;;;;;;;4998485;28;113710;-82
2021/11/13 02:10:25;;;;;;;;;40.67;36.33;;;;;;;;5000883;28;112880;-82
2021/11/13 02:12:50;;;;;;;;;42.00;37.00;;;;;;;;4998865;28;114948;-81
2021/11/13 02:15:16;;;;;;;;;39.50;31.25;;;;;;;;5000259;28;112479;-82
2021/11/13 02:17:41;;;;;;;;;29.25;27.00;;;;;;;;5000798;28;112066;-82
2021/11/13 02:20:19;;;;;;;;;34.25;29.75;;;;;;;;5003496;28;112058;-82
2021/11/13 02:22:44;;;;;;;;;47.67;38.00;;;;;;;;5000312;28;111808;-81
2021/11/13 02:25:10;;;;;;;;;40.67;36.00;;;;;;;;4999787;28;111992;-82
2021/11/13 02:27:35;;;;;;;;;44.67;37.67;;;;;;;;4997197;28;116045;-81
2021/11/13 02:30:01;;;;;;;;;30.33;30.00;;;;;;;;5000219;28;111844;-80
2021/11/13 02:32:26;;;;;;;;;36.67;34.00;;;;;;;;4998841;28;113091;-82
2021/11/13 02:34:51;;;;;;;;;32.25;30.25;;;;;;;;4999444;28;112403;-84
2021/11/13 02:37:17;;;;;;;;;38.25;32.00;;;;;;;;5000266;28;111703;-81
2021/11/13 02:39:43;;;;;;;;;33.50;26.75;;;;;;;;5000267;28;111932;-82
2021/11/13 02:42:08;;;;;;;;;32.25;30.25;;;;;;;;5002498;28;113117;-82
2021/11/13 02:44:34;;;;;;;;;31.00;29.00;;;;;;;;4999788;28;112722;-82
2021/11/13 02:46:59;;;;;;;;;31.75;30.25;;;;;;;;4998890;28;112657;-81
2021/11/13 02:49:25;;;;;;;;;31.25;28.00;;;;;;;;4998176;28;112938;-84
2021/11/13 02:51:50;;;;;;;;;28.75;26.50;;;;;;;;5000191;28;112090;-83
2021/11/13 02:54:15;;;;;;;;;32.50;29.75;;;;;;;;4999248;28;112430;-81
2021/11/13 02:56:41;;;;;;;;;30.75;30.00;;;;;;;;5000299;28;112195;-82
2021/11/13 02:59:06;;;;;;;;;17.50;9.50;;;;;;;;4999747;28;113079;-82
2021/11/13 03:01:31;;;;;;;;;37.75;27.50;;;;;;;;4998858;28;112401;-83
2021/11/13 03:03:57;;;;;;;;;29.75;26.00;;;;;;;;5004048;28;111914;-82
2021/11/13 03:06:23;;;;;;;;;29.00;26.25;;;;;;;;4998529;28;113608;-83
2021/11/13 03:08:50;;;;;;;;;27.00;23.75;;;;;;;;5002062;28;111976;-85
2021/11/13 03:11:16;;;;;;;;;32.00;26.00;;;;;;;;5001397;28;115713;-85
2021/11/13 03:13:43;;;;;;;;;26.00;22.50;;;;;;;;5002532;28;112755;-80
2021/11/13 03:16:09;;;;;;;;;26.75;24.00;;;;;;;;5001622;28;112003;-80
2021/11/13 03:18:35;;;;;;;;;22.25;20.50;;;;;;;;5001332;28;113729;-81
2021/11/13 03:21:05;;;;;;;;;31.25;25.00;;;;;;;;5001783;28;113225;-84
2021/11/13 03:23:31;;;;;;;;;26.50;25.00;;;;;;;;5002897;28;111768;-87
2021/11/13 03:26:05;;;;;;;;;30.25;23.75;;;;;;;;5006748;28;112301;-86
2021/11/13 03:28:33;;;;;;;;;21.25;17.00;;;;;;;;5003752;28;111859;-83
2021/11/13 03:31:02;;;;;;;;;24.50;23.75;;;;;;;;5002670;28;112941;-82
2021/11/13 03:33:28;;;;;;;;;35.25;26.00;;;;;;;;5001995;28;113720;-82
2021/11/13 03:35:53;;;;;;;;;30.50;23.75;;;;;;;;5002536;28;111884;-79
2021/11/13 03:38:18;;;;;;;;;30.75;26.00;;;;;;;;5002537;28;112156;-81
2021/11/13 03:40:46;;;;;;;;;26.50;22.75;;;;;;;;5001604;28;112437;-78
2021/11/13 03:43:12;;;;;;;;;31.00;26.00;;;;;;;;5002293;28;112107;-76
2021/11/13 03:45:38;;;;;;;;;27.50;26.00;;;;;;;;5006154;28;113247;-81
2021/11/13 03:48:03;;;;;;;;;29.75;26.50;;;;;;;;5001407;28;112359;-81
2021/11/13 03:50:29;;;;;;;;;26.25;21.75;;;;;;;;5003171;28;112014;-83
2021/11/13 03:52:55;;;;;;;;;26.50;25.00;;;;;;;;5001771;28;112364;-83
2021/11/13 03:55:21;;;;;;;;;21.75;19.25;;;;;;;;5002216;28;112275;-81
2021/11/13 03:57:46;;;;;;;;;24.00;19.50;;;;;;;;5001579;28;111933;-81
2021/11/13 04:00:12;;;;;;;;;17.75;17.50;;;;;;;;4998985;28;112535;-79
2021/11/13 04:02:39;;;;;;;;;14.75;14.75;;;;;;;;5002118;28;112120;-78
2021/11/13 04:05:04;;;;;;;;;19.75;16.50;;;;;;;;5002739;28;113009;-82
2021/11/13 04:07:29;;;;;;;;;24.00;19.25;;;;;;;;5004008;28;112579;-83
2021/11/13 04:09:55;;;;;;;;;25.50;19.75;;;;;;;;5002811;28;111828;-83
2021/11/13 04:12:20;;;;;;;;;28.00;22.75;;;;;;;;5001538;28;112362;-80
2021/11/13 04:14:46;;;;;;;;;24.25;22.50;;;;;;;;5002830;28;112918;-78
2021/11/13 04:17:11;;;;;;;;;20.75;20.00;;;;;;;;5002509;28;113344;-83
2021/11/13 04:19:37;;;;;;;;;22.50;18.75;;;;;;;;5000846;28;112411;-83
2021/11/13 04:22:02;;;;;;;;;22.50;19.00;;;;;;;;5002557;28;112088;-84
2021/11/13 04:24:27;;;;;;;;;21.50;17.75;;;;;;;;5001834;28;111999;-84
2021/11/13 04:26:53;;;;;;;;;24.00;19.00;;;;;;;;5000126;28;112530;-86
2021/11/13 04:29:18;;;;;;;;;20.25;19.00;;;;;;;;5004464;28;112259;-83
2021/11/13 04:31:43;;;;;;;;;21.50;19.50;;;;;;;;5000942;28;112421;-85
2021/11/13 04:34:13;;;;;;;;;23.50;21.75;;;;;;;;5002243;28;112194;-85
2021/11/13 04:36:43;;;;;;;;;23.25;18.75;;;;;;;;5002069;28;113503;-84
2021/11/13 04:39:09;;;;;;;;;24.50;20.50;;;;;;;;5001186;28;112763;-85
2021/11/13 04:41:35;;;;;;;;;27.75;20.50;;;;;;;;5002401;28;111912;-85
2021/11/13 04:44:00;;;;;;;;;18.00;18.00;;;;;;;;5002402;28;113156;-85
2021/11/13 04:46:26;;;;;;;;;24.25;23.00;;;;;;;;4999936;28;114325;-85
2021/11/13 04:48:54;;;;;;;;;26.00;21.75;;;;;;;;5002765;28;112341;-85
2021/11/13 04:51:19;;;;;;;;;30.25;22.25;;;;;;;;5003553;28;114875;-84
2021/11/13 04:53:45;;;;;;;;;26.00;20.00;;;;;;;;5002581;28;111776;-86
2021/11/13 04:56:10;;;;;;;;;24.50;19.00;;;;;;;;5001268;28;113426;-86
2021/11/13 04:58:35;;;;;;;;;24.00;22.25;;;;;;;;5001069;28;112842;-85
2021/11/13 05:01:01;;;;;;;;;25.75;21.25;;;;;;;;5002217;28;111809;-86
2021/11/13 05:03:26;;;;;;;;;22.75;21.25;;;;;;;;5002593;28;111930;-85
2021/11/13 05:05:52;;;;;;;;;25.50;22.50;;;;;;;;5001272;28;113975;-85
2021/11/13 05:08:17;;;;;;;;;22.75;20.25;;;;;;;;5002331;28;111892;-82
2021/11/13 05:10:42;;;;;;;;;19.50;19.50;;;;;;;;5002097;28;112146;-83
2021/11/13 05:13:08;;;;;;;;;24.00;21.75;;;;;;;;5004413;28;113552;-83
2021/11/13 05:15:33;;;;;;;;;24.00;22.25;;;;;;;;5012905;28;111850;-83
2021/11/13 05:17:58;;;;;;;;;26.50;17.00;;;;;;;;5006363;28;111927;-84
2021/11/13 05:20:23;;;;;;;;;21.50;20.50;;;;;;;;5005603;28;113043;-83
2021/11/13 05:22:49;;;;;;;;;23.00;18.00;;;;;;;;5003037;28;113180;-84
2021/11/13 05:25:16;;;;;;;;;25.00;21.00;;;;;;;;5001464;28;113748;-83
2021/11/13 05:27:42;;;;;;;;;22.00;20.25;;;;;;;;5002219;28;111829;-83
2021/11/13 05:30:08;;;;;;;;;24.00;19.50;;;;;;;;5000749;28;112567;-82
2021/11/13 09:51:40;;;;;;;;;36.50;31.75;;;;;;;;5064233;27;1472517;-74
2021/11/13 09:54:05;;;;;;;;;27.25;26.50;;;;;;;;5096040;27;112543;-77
2021/11/13 09:56:31;;;;;;;;;37.25;30.25;;;;;;;;5098669;27;111760;-77
2021/11/13 09:58:56;;;;;;;;;33.75;30.75;;;;;;;;5098253;27;112250;-77
2021/11/13 10:09:07;;;;;;;;;32.25;30.50;;;;;;;;5806060;22;115039;-86
2021/11/13 10:11:37;;;;;;;;;32.75;29.75;;;;;;;;4974560;28;111853;-83
2021/11/13 10:14:02;;;;;;;;;34.25;30.00;;;;;;;;4975799;28;113132;-83
2021/11/13 10:16:32;;;;;;;;;29.75;29.75;;;;;;;;4975650;28;112045;-81
2021/11/13 10:19:03;;;;;;;;;32.00;29.75;;;;;;;;4977240;28;112661;-77
2021/11/13 10:21:29;;;;;;;;;34.50;29.75;;;;;;;;4975666;28;112499;-77
2021/11/13 10:23:59;;;;;;;;;27.25;25.00;;;;;;;;4976349;28;111766;-76
2021/11/13 10:26:28;;;;;;;;;33.25;27.25;;;;;;;;4976250;28;111945;-77
2021/11/13 10:29:00;;;;;;;;;25.25;23.00;;;;;;;;4975501;28;112513;-76
2021/11/13 10:31:30;;;;;;;;;29.75;28.25;;;;;;;;4976362;28;111880;-80
2021/11/13 10:33:57;;;;;;;;;30.50;26.75;;;;;;;;4978464;28;113311;-78
2021/11/13 10:36:25;;;;;;;;;28.25;28.25;;;;;;;;4977075;28;112193;-80
2021/11/13 10:38:59;;;;;;;;;29.50;23.25;;;;;;;;4975549;28;112782;-80
2021/11/13 10:41:25;;;;;;;;;34.50;27.75;;;;;;;;4974797;28;113070;-76
2021/11/13 10:43:51;;;;;;;;;27.50;24.00;;;;;;;;4975459;28;112294;-79
2021/11/13 10:46:17;;;;;;;;;36.75;28.75;;;;;;;;4974672;28;115503;-77
2021/11/13 10:48:48;;;;;;;;;23.00;20.00;;;;;;;;4975313;28;112480;-77
2021/11/13 10:51:18;;;;;;;;;22.50;20.50;;;;;;;;4975912;28;113308;-76
2021/11/13 10:53:45;;;;;;;;;49.00;37.00;;;;;;;;4976520;28;113193;-79
2021/11/13 10:56:30;;;;;;;;;31.50;27.25;;;;;;;;4979727;28;112272;-80
2021/11/13 10:58:57;;;;;;;;;20.00;19.00;;;;;;;;4976069;28;113766;-78
2021/11/13 11:01:23;;;;;;;;;15.25;14.50;;;;;;;;4969983;28;112699;-76
2021/11/13 11:03:49;;;;;;;;;14.50;14.00;;;;;;;;4961518;28;112019;-81
2021/11/13 11:06:20;;;;;;;;;10.67;9.33;;;;;;;;4963099;28;111976;-78
2021/11/13 11:08:45;;;;;;;;;12.33;11.67;;;;;;;;4959956;28;113619;-83
2021/11/13 11:11:43;;;;;;;;;10.67;9.00;;;;;;;;4962584;28;112208;-79
2021/11/13 11:14:17;;;;;;;;;20.00;17.33;;;;;;;;4961811;28;113446;-81
2021/11/13 11:16:43;;;;;;;;;10.00;10.00;;;;;;;;4960827;28;113853;-77
2021/11/13 11:19:08;;;;;;;;;10.00;10.00;;;;;;;;4966611;28;112313;-77
2021/11/13 11:21:38;;;;;;;;;9.33;9.33;;;;;;;;4960945;28;112377;-81
2021/11/13 11:24:22;;;;;;;;;8.50;8.25;;;;;;;;4962175;28;112326;-77
2021/11/13 11:26:53;;;;;;;;;8.50;8.50;;;;;;;;4961226;28;113017;-76
2021/11/13 11:29:18;;;;;;;;;11.75;10.00;;;;;;;;4960322;28;112467;-76
2021/11/13 11:31:48;;;;;;;;;10.25;8.75;;;;;;;;4960120;28;113091;-79
2021/11/13 11:34:17;;;;;;;;;9.25;9.25;;;;;;;;4951725;28;112247;-78
2021/11/13 11:36:43;;;;;;;;;12.00;10.75;;;;;;;;4953366;28;112567;-78
2021/11/13 11:39:08;;;;;;;;;11.00;10.00;;;;;;;;4959669;28;112806;-76
2021/11/13 11:41:33;;;;;;;;;11.75;9.75;;;;;;;;4963004;28;111991;-80
2021/11/13 11:43:59;;;;;;;;;21.00;14.75;;;;;;;;4960729;28;112376;-81
2021/11/13 11:46:26;;;;;;;;;12.50;9.75;;;;;;;;4951626;28;113323;-85
2021/11/13 11:48:52;;;;;;;;;9.25;7.50;;;;;;;;4951002;28;112480;-80
2021/11/13 11:51:17;;;;;;;;;3.00;1.00;;;;;;;;4955295;28;111951;-83
2021/11/13 11:53:43;;;;;;;;;5.25;5.25;;;;;;;;4950563;28;111862;-83
2021/11/13 11:56:08;;;;;;;;;10.75;8.75;;;;;;;;4953378;28;112442;-77
2021/11/13 11:58:34;;;;;;;;;10.50;9.75;;;;;;;;4963216;28;111897;-86
2021/11/13 12:01:01;;;;;;;;;5.75;5.00;;;;;;;;4963665;28;112019;-83
2021/11/13 12:03:30;;;;;;;;;9.50;9.00;;;;;;;;4965258;28;111785;-85
2021/11/13 12:05:55;;;;;;;;;14.75;9.25;;;;;;;;4957036;28;115059;-79
2021/11/13 12:08:22;;;;;;;;;22.50;18.50;;;;;;;;4958615;28;112699;-79
2021/11/13 12:10:48;;;;;;;;;13.75;10.75;;;;;;;;4959253;28;111903;-81
2021/11/13 12:13:23;;;;;;;;;15.75;14.00;;;;;;;;4959563;28;112855;-79
2021/11/13 12:15:51;;;;;;;;;10.25;10.00;;;;;;;;4959162;28;112377;-84
2021/11/13 12:18:17;;;;;;;;;13.75;11.00;;;;;;;;4955356;28;112354;-83
2021/11/13 12:20:43;;;;;;;;;11.00;11.00;;;;;;;;4960514;28;112934;-85
2021/11/13 12:23:10;;;;;;;;;11.75;11.75;;;;;;;;4953958;28;113089;-81
2021/11/13 12:25:37;;;;;;;;;12.25;11.25;;;;;;;;4951864;28;113487;-83
2021/11/13 12:28:08;;;;;;;;;10.25;9.00;;;;;;;;4955362;28;112420;-84
2021/11/13 12:30:52;;;;;;;;;12.00;9.25;;;;;;;;4963423;28;112360;-83
2021/11/13 12:33:26;;;;;;;;;10.50;9.00;;;;;;;;4959425;28;112001;-88
2021/11/13 12:35:53;;;;;;;;;10.50;8.00;;;;;;;;4959474;28;113000;-85
2021/11/13 12:38:31;;;;;;;;;11.00;11.00;;;;;;;;4959164;28;113707;-83
2021/11/13 12:41:09;;;;;;;;;15.25;9.00;;;;;;;;4956655;28;112702;-78
2021/11/13 12:43:57;;;;;;;;;31.50;24.00;;;;;;;;4959238;28;113814;-80
2021/11/13 12:46:30;;;;;;;;;37.50;29.00;;;;;;;;4965314;28;111802;-82
2021/11/13 12:49:13;;;;;;;;;13.75;11.00;;;;;;;;4958010;28;113703;-80
2021/11/13 12:51:59;;;;;;;;;9.75;9.75;;;;;;;;4960188;28;112272;-78
2021/11/13 12:54:24;;;;;;;;;13.00;9.00;;;;;;;;4962520;28;113013;-78
2021/11/13 12:56:51;;;;;;;;;9.50;9.50;;;;;;;;4961546;28;112952;-81
2021/11/13 12:59:20;;;;;;;;;11.50;9.00;;;;;;;;4962629;28;111857;-82
2021/11/13 13:01:47;;;;;;;;;9.00;8.75;;;;;;;;4962650;28;112162;-82
2021/11/13 13:04:12;;;;;;;;;11.50;9.50;;;;;;;;4958722;28;115621;-74
2021/11/13 13:06:44;;;;;;;;;9.00;8.75;;;;;;;;4960310;28;112650;-73
2021/11/13 13:09:09;;;;;;;;;11.25;9.00;;;;;;;;4960234;28;112934;-73
2021/11/13 13:11:34;;;;;;;;;8.00;8.00;;;;;;;;4960730;28;112081;-73
2021/11/13 13:13:59;;;;;;;;;20.50;16.00;;;;;;;;4962129;28;112781;-74
2021/11/13 13:16:28;;;;;;;;;15.00;14.00;;;;;;;;4960178;28;112397;-74
2021/11/13 13:18:59;;;;;;;;;9.25;8.25;;;;;;;;4960802;28;111895;-80
2021/11/13 13:21:25;;;;;;;;;10.75;10.00;;;;;;;;4960600;28;113160;-77
2021/11/13 13:23:50;;;;;;;;;13.25;9.75;;;;;;;;4960043;28;113611;-77
2021/11/13 13:26:17;;;;;;;;;12.25;8.25;;;;;;;;4962083;28;111939;-77
2021/11/13 13:28:43;;;;;;;;;8.75;7.25;;;;;;;;4961815;28;112123;-77
2021/11/13 13:31:09;;;;;;;;;7.00;7.00;;;;;;;;4964311;28;112838;-78
2021/11/13 13:33:35;;;;;;;;;8.00;6.00;;;;;;;;4961358;28;111938;-81
2021/11/13 13:36:01;;;;;;;;;9.75;8.00;;;;;;;;4961046;28;112991;-80
2021/11/13 13:38:26;;;;;;;;;8.75;6.50;;;;;;;;4961353;28;111958;-80
2021/11/13 13:40:56;;;;;;;;;14.00;12.00;;;;;;;;4962173;28;111841;-80
2021/11/13 13:43:28;;;;;;;;;7.00;6.50;;;;;;;;4957794;28;113008;-79
2021/11/13 13:45:59;;;;;;;;;13.75;8.00;;;;;;;;4957752;28;112332;-78
2021/11/13 13:48:28;;;;;;;;;4.75;4.75;;;;;;;;4958713;28;113045;-78
2021/11/13 13:50:53;;;;;;;;;5.25;5.00;;;;;;;;4960570;28;112509;-77
2021/11/13 13:53:19;;;;;;;;;5.50;5.00;;;;;;;;4965204;28;112183;-75
2021/11/13 13:55:46;;;;;;;;;6.00;6.00;;;;;;;;4960432;28;112607;-75
2021/11/13 13:58:12;;;;;;;;;8.00;6.00;;;;;;;;4961744;28;111877;-77
2021/11/13 14:00:41;;;;;;;;;13.50;9.00;;;;;;;;4961474;28;112288;-80
2021/11/13 14:03:06;;;;;;;;;8.00;8.00;;;;;;;;4959810;28;113002;-76
2021/11/13 14:05:33;;;;;;;;;9.75;8.25;;;;;;;;4960942;28;111997;-74
2021/11/13 14:08:03;;;;;;;;;12.50;8.75;;;;;;;;4961701;28;112231;-75
2021/11/13 14:10:28;;;;;;;;;6.75;6.50;;;;;;;;4958253;28;113750;-74
2021/11/13 14:12:55;;;;;;;;;6.00;6.00;;;;;;;;4964415;28;111693;-74
2021/11/13 14:15:25;;;;;;;;;6.50;6.00;;;;;;;;4959886;28;114798;-76
2021/11/13 14:17:59;;;;;;;;;6.50;6.50;;;;;;;;4960970;28;111811;-74
2021/11/13 14:20:25;;;;;;;;;8.00;6.25;;;;;;;;4961150;28;111814;-74
2021/11/13 14:22:58;;;;;;;;;8.75;6.75;;;;;;;;4960044;28;113645;-74
2021/11/13 14:25:24;;;;;;;;;8.75;5.75;;;;;;;;4960631;28;111712;-74
2021/11/13 14:27:49;;;;;;;;;10.00;9.50;;;;;;;;4961467;28;112312;-75
2021/11/13 14:30:15;;;;;;;;;7.00;3.50;;;;;;;;4960059;28;112434;-74
2021/11/13 14:32:49;;;;;;;;;5.00;5.00;;;;;;;;4960744;28;111918;-75
2021/11/13 14:35:18;;;;;;;;;6.75;4.00;;;;;;;;4963509;28;113414;-73
2021/11/13 14:37:43;;;;;;;;;2.00;2.00;;;;;;;;4962461;28;112382;-74
2021/11/13 14:40:09;;;;;;;;;5.50;4.00;;;;;;;;4963058;28;112526;-74
2021/11/13 14:42:36;;;;;;;;;4.00;1.50;;;;;;;;4963622;28;112558;-74
2021/11/13 14:45:01;;;;;;;;;1.75;1.75;;;;;;;;4963688;28;111788;-74
2021/11/13 14:47:28;;;;;;;;;2.00;2.00;;;;;;;;4964113;28;111975;-74
2021/11/13 14:50:01;;;;;;;;;1.50;1.00;;;;;;;;4962619;28;112484;-73
2021/11/13 14:52:46;;;;;;;;;4.00;1.75;;;;;;;;4963974;28;112786;-73
2021/11/13 14:55:15;;;;;;;;;1.00;0.00;;;;;;;;4963707;28;111907;-74
2021/11/13 14:57:52;;;;;;;;;2.00;0.00;;;;;;;;4961149;28;113005;-74
2021/11/13 15:00:20;;;;;;;;;0.50;0.50;;;;;;;;4963211;28;111833;-73
2021/11/13 15:02:46;;;;;;;;;0.00;0.00;;;;;;;;4962722;28;112552;-75
2021/11/13 15:05:20;;;;;;;;;1.00;0.50;;;;;;;;4963764;28;111875;-73
2021/11/13 15:07:46;;;;;;;;;1.25;0.25;;;;;;;;4963616;28;111899;-76
2021/11/13 15:10:12;;;;;;;;;1.25;1.25;;;;;;;;4962151;28;112306;-74
2021/11/13 15:12:37;;;;;;;;;3.50;1.00;;;;;;;;4963050;28;111918;-75
2021/11/13 15:15:03;;;;;;;;;0.25;0.25;;;;;;;;4963771;28;112030;-75
2021/11/13 15:17:30;;;;;;;;;0.00;0.00;;;;;;;;4963044;28;113295;-74
2021/11/13 15:20:03;;;;;;;;;0.75;0.00;;;;;;;;4967657;28;111760;-75
2021/11/13 15:22:37;;;;;;;;;0.00;0.00;;;;;;;;4962189;28;112599;-74
2021/11/13 15:25:09;;;;;;;;;0.75;0.75;;;;;;;;4961446;28;111866;-74
2021/11/13 15:27:34;;;;;;;;;0.00;0.00;;;;;;;;4962763;28;113049;-74
2021/11/13 15:30:00;;;;;;;;;2.00;1.00;;;;;;;;4962556;28;112332;-74
2021/11/13 15:32:26;;;;;;;;;0.75;0.75;;;;;;;;4963805;28;112345;-73
2021/11/13 15:34:52;;;;;;;;;1.00;1.00;;;;;;;;4963097;28;113204;-73
2021/11/13 15:37:18;;;;;;;;;2.00;0.50;;;;;;;;4962177;28;112390;-73
2021/11/13 15:39:56;;;;;;;;;1.25;1.00;;;;;;;;4962636;28;111879;-73
2021/11/13 15:42:22;;;;;;;;;0.00;0.00;;;;;;;;4966089;28;112119;-74
2021/11/13 15:44:49;;;;;;;;;1.50;0.00;;;;;;;;4963373;28;111794;-75
2021/11/13 15:47:16;;;;;;;;;0.00;0.00;;;;;;;;4962626;28;112471;-73
2021/11/13 15:49:41;;;;;;;;;0.00;0.00;;;;;;;;4961462;28;113653;-74
2021/11/13 15:52:07;;;;;;;;;0.00;0.00;;;;;;;;4961497;28;112066;-73
2021/11/13 15:54:32;;;;;;;;;0.00;0.00;;;;;;;;4963008;28;112343;-75
2021/11/13 15:56:57;;;;;;;;;0.00;0.00;;;;;;;;4961640;28;112444;-75
2021/11/13 15:59:22;;;;;;;;;1.75;0.50;;;;;;;;4961017;28;111942;-74
2021/11/13 16:01:49;;;;;;;;;0.00;0.00;;;;;;;;4963028;28;111875;-73
2021/11/13 16:04:15;;;;;;;;;0.00;0.00;;;;;;;;4965553;28;113585;-74
2021/11/13 16:06:43;;;;;;;;;0.00;0.00;;;;;;;;4963527;28;111973;-74
2021/11/13 16:09:09;;;;;;;;;0.00;0.00;;;;;;;;4961118;28;112449;-74
2021/11/13 16:11:34;;;;;;;;;0.00;0.00;;;;;;;;4962208;28;111843;-73
2021/11/13 16:14:00;;;;;;;;;1.00;1.00;;;;;;;;4962977;28;112005;-74
2021/11/13 16:16:27;;;;;;;;;0.25;0.25;;;;;;;;4961821;28;112302;-74
2021/11/13 16:18:53;;;;;;;;;1.00;0.00;;;;;;;;4962354;28;111776;-76
2021/11/13 16:21:21;;;;;;;;;1.75;1.00;;;;;;;;4961140;28;113114;-76
2021/11/13 16:23:46;;;;;;;;;0.00;0.00;;;;;;;;4965492;28;114152;-75
2021/11/13 16:26:11;;;;;;;;;4.25;1.00;;;;;;;;4962518;28;112472;-73
2021/11/13 16:28:37;;;;;;;;;0.75;0.75;;;;;;;;4961327;28;113332;-73
2021/11/13 16:31:02;;;;;;;;;4.00;0.00;;;;;;;;4962677;28;112176;-75
2021/11/13 16:33:28;;;;;;;;;0.00;0.00;;;;;;;;4962116;28;111917;-75
2021/11/13 16:35:54;;;;;;;;;1.25;0.50;;;;;;;;4959474;28;113960;-77
2021/11/13 16:38:20;;;;;;;;;0.50;0.50;;;;;;;;4962425;28;111681;-75
2021/11/13 16:40:47;;;;;;;;;0.25;0.25;;;;;;;;4962344;28;112892;-76
2021/11/13 16:43:13;;;;;;;;;2.00;0.00;;;;;;;;4960926;28;113599;-74
2021/11/13 16:45:40;;;;;;;;;0.25;0.25;;;;;;;;4965765;28;112904;-76
2021/11/13 16:48:06;;;;;;;;;0.50;0.50;;;;;;;;4961648;28;112515;-75
2021/11/13 16:50:33;;;;;;;;;1.00;1.00;;;;;;;;4961837;28;112324;-76
2021/11/13 16:53:01;;;;;;;;;4.25;2.00;;;;;;;;4959102;28;112329;-76
2021/11/13 16:55:27;;;;;;;;;3.00;1.25;;;;;;;;4961143;28;112727;-77
2021/11/13 16:57:52;;;;;;;;;4.00;2.00;;;;;;;;4961826;28;111761;-76
2021/11/13 17:00:18;;;;;;;;;1.00;1.00;;;;;;;;4961388;28;111879;-77
2021/11/13 17:02:43;;;;;;;;;4.00;1.75;;;;;;;;4960393;28;113726;-72
2021/11/13 17:05:08;;;;;;;;;1.75;1.00;;;;;;;;4961415;28;112194;-75
2021/11/13 17:07:34;;;;;;;;;2.50;1.00;;;;;;;;4964191;28;112231;-73
2021/11/13 17:10:00;;;;;;;;;2.00;2.00;;;;;;;;4961092;28;111872;-74
2021/11/13 17:12:25;;;;;;;;;1.50;1.50;;;;;;;;4960811;28;111880;-75
2021/11/13 17:14:51;;;;;;;;;1.00;1.00;;;;;;;;4960387;28;112318;-81
2021/11/13 17:17:16;;;;;;;;;1.50;1.50;;;;;;;;4960130;28;111978;-80
2021/11/13 17:19:42;;;;;;;;;1.50;1.00;;;;;;;;4961803;28;112390;-80
2021/11/13 17:22:07;;;;;;;;;4.00;1.00;;;;;;;;4959005;28;112841;-79
2021/11/13 17:24:32;;;;;;;;;1.25;1.00;;;;;;;;4961405;28;112122;-79
2021/11/13 17:26:59;;;;;;;;;4.00;2.00;;;;;;;;4961037;28;112221;-78
2021/11/13 17:29:25;;;;;;;;;2.00;1.25;;;;;;;;4964373;28;113278;-80
2021/11/13 17:31:50;;;;;;;;;2.00;2.00;;;;;;;;4961694;28;112901;-77
2021/11/13 17:34:16;;;;;;;;;2.00;1.75;;;;;;;;4960189;28;112920;-80
2021/11/13 17:36:41;;;;;;;;;2.00;1.50;;;;;;;;4961503;28;111765;-79
2021/11/13 17:39:07;;;;;;;;;1.50;1.50;;;;;;;;4960829;28;113084;-79
2021/11/13 17:41:32;;;;;;;;;1.25;1.25;;;;;;;;4959849;28;112490;-76
2021/11/13 17:43:58;;;;;;;;;2.00;2.00;;;;;;;;4960762;28;111676;-75
2021/11/13 17:46:24;;;;;;;;;3.25;1.00;;;;;;;;4961147;28;112623;-75
2021/11/13 17:48:49;;;;;;;;;2.00;2.00;;;;;;;;4960326;28;112440;-74
2021/11/13 17:51:15;;;;;;;;;2.00;2.00;;;;;;;;4964396;28;112140;-75
2021/11/13 17:53:40;;;;;;;;;2.00;2.00;;;;;;;;4960302;28;112515;-75
2021/11/13 17:56:05;;;;;;;;;2.00;2.00;;;;;;;;4959690;28;111879;-75
2021/11/13 17:58:31;;;;;;;;;1.75;1.75;;;;;;;;4959875;28;112964;-75
2021/11/13 18:00:58;;;;;;;;;2.00;2.00;;;;;;;;4958075;28;112427;-75
2021/11/13 18:03:25;;;;;;;;;4.75;2.00;;;;;;;;4959515;28;112480;-74
2021/11/13 18:05:52;;;;;;;;;4.50;2.00;;;;;;;;4959484;28;113246;-75
2021/11/13 18:08:18;;;;;;;;;2.00;2.00;;;;;;;;4957397;28;114403;-74
2021/11/13 18:10:45;;;;;;;;;3.00;3.00;;;;;;;;4958531;28;112089;-75
2021/11/13 18:13:11;;;;;;;;;3.00;1.75;;;;;;;;4964782;28;113111;-75
2021/11/13 18:15:36;;;;;;;;;4.00;2.50;;;;;;;;4961980;28;112251;-75
2021/11/13 18:18:02;;;;;;;;;4.75;3.50;;;;;;;;4962267;28;111810;-77
2021/11/13 18:20:28;;;;;;;;;4.00;4.00;;;;;;;;4962585;28;112435;-75
2021/11/13 18:22:54;;;;;;;;;4.00;4.00;;;;;;;;4963914;28;112496;-78
2021/11/13 18:25:25;;;;;;;;;5.00;3.50;;;;;;;;4964144;28;111882;-75
2021/11/13 18:27:55;;;;;;;;;7.00;5.00;;;;;;;;4962927;28;112451;-74
2021/11/13 18:30:21;;;;;;;;;4.00;4.00;;;;;;;;4963362;28;112039;-78
2021/11/13 18:32:46;;;;;;;;;7.50;6.50;;;;;;;;4965342;28;112887;-74
2021/11/13 18:35:12;;;;;;;;;5.25;4.75;;;;;;;;4963194;28;112883;-78
2021/11/13 18:37:37;;;;;;;;;6.75;5.00;;;;;;;;4963098;28;112950;-77
2021/11/13 18:40:06;;;;;;;;;5.00;5.00;;;;;;;;4962037;28;112395;-75
2021/11/13 18:42:32;;;;;;;;;5.00;5.00;;;;;;;;4964054;28;111825;-76